sensor_id;sensor_type;location;lat;lon;timestamp;temperature;humidity
30764;DHT22;17497;51.476;7.770;2023-12-07T00:01:25;2.90;99.90
30764;DHT22;17497;51.476;7.770;2023-12-07T00:03:52;2.80;99.90
30764;DHT22;17497;51.476;7.770;2023-12-07T00:06:18;2.80;99.90
30764;DHT22;17497;51.476;7.770;2023-12-07T00:08:45;2.80;99.90
30764;DHT22;17497;51.476;7.770;2023-12-07T00:11:12;2.80;99.90
30764;DHT22;17497;51.476;7.770;2023-12-07T00:13:39;2.80;99.90
30764;DHT22;17497;51.476;7.770;2023-12-07T00:16:06;2.80;99.90
30764;DHT22;17497;51.476;7.770;2023-12-07T00:18:33;2.80;99.90
30764;DHT22;17497;51.476;7.770;2023-12-07T00:21:07;2.80;99.90
30764;DHT22;17497;51.476;7.770;2023-12-07T00:23:37;2.80;99.90
30764;DHT22;17497;51.476;7.770;2023-12-07T00:26:04;2.80;99.90
30764;DHT22;17497;51.476;7.770;2023-12-07T00:28:31;2.80;99.90
30764;DHT22;17497;51.476;7.770;2023-12-07T00:30:58;2.80;99.90
30764;DHT22;17497;51.476;7.770;2023-12-07T00:33:25;2.70;99.90
30764;DHT22;17497;51.476;7.770;2023-12-07T00:35:51;2.70;99.90
30764;DHT22;17497;51.476;7.770;2023-12-07T00:38:18;2.70;99.90
30764;DHT22;17497;51.476;7.770;2023-12-07T00:40:47;2.70;99.90
30764;DHT22;17497;51.476;7.770;2023-12-07T00:43:13;2.70;99.90
30764;DHT22;17497;51.476;7.770;2023-12-07T00:45:40;2.70;99.90
30764;DHT22;17497;51.476;7.770;2023-12-07T00:48:07;2.60;99.90
30764;DHT22;17497;51.476;7.770;2023-12-07T00:50:34;2.60;99.90
30764;DHT22;17497;51.476;7.770;2023-12-07T00:53:00;2.50;99.90
30764;DHT22;17497;51.476;7.770;2023-12-07T00:55:27;2.50;99.90
30764;DHT22;17497;51.476;7.770;2023-12-07T00:57:54;2.60;99.90
30764;DHT22;17497;51.476;7.770;2023-12-07T01:00:21;2.50;99.90
30764;DHT22;17497;51.476;7.770;2023-12-07T01:02:48;2.50;99.90
30764;DHT22;17497;51.476;7.770;2023-12-07T01:05:15;2.50;99.90
30764;DHT22;17497;51.476;7.770;2023-12-07T01:07:42;2.40;99.90
30764;DHT22;17497;51.476;7.770;2023-12-07T01:10:08;2.40;99.90
30764;DHT22;17497;51.476;7.770;2023-12-07T01:12:35;2.40;99.90
30764;DHT22;17497;51.476;7.770;2023-12-07T01:15:02;2.40;99.90
30764;DHT22;17497;51.476;7.770;2023-12-07T01:17:29;2.30;99.90
30764;DHT22;17497;51.476;7.770;2023-12-07T01:19:56;2.30;99.90
30764;DHT22;17497;51.476;7.770;2023-12-07T01:22:23;2.40;99.90
30764;DHT22;17497;51.476;7.770;2023-12-07T01:24:50;2.40;99.90
30764;DHT22;17497;51.476;7.770;2023-12-07T01:27:17;2.40;99.90
30764;DHT22;17497;51.476;7.770;2023-12-07T01:29:44;2.30;99.90
30764;DHT22;17497;51.476;7.770;2023-12-07T01:32:11;2.40;99.90
30764;DHT22;17497;51.476;7.770;2023-12-07T01:34:41;2.30;99.90
30764;DHT22;17497;51.476;7.770;2023-12-07T01:37:08;2.40;99.90
30764;DHT22;17497;51.476;7.770;2023-12-07T01:39:34;2.30;99.90
30764;DHT22;17497;51.476;7.770;2023-12-07T01:42:01;2.40;99.90
30764;DHT22;17497;51.476;7.770;2023-12-07T01:44:28;2.30;99.90
30764;DHT22;17497;51.476;7.770;2023-12-07T01:46:55;2.30;99.90
30764;DHT22;17497;51.476;7.770;2023-12-07T01:49:22;2.30;99.90
30764;DHT22;17497;51.476;7.770;2023-12-07T01:51:49;2.30;99.90
30764;DHT22;17497;51.476;7.770;2023-12-07T01:54:16;2.30;99.90
30764;DHT22;17497;51.476;7.770;2023-12-07T01:56:43;2.30;99.90
30764;DHT22;17497;51.476;7.770;2023-12-07T01:59:10;2.20;99.90
30764;DHT22;17497;51.476;7.770;2023-12-07T02:01:37;2.10;99.90
30764;DHT22;17497;51.476;7.770;2023-12-07T02:04:04;2.10;99.90
30764;DHT22;17497;51.476;7.770;2023-12-07T02:06:31;2.00;99.90
30764;DHT22;17497;51.476;7.770;2023-12-07T02:08:59;2.00;99.90
30764;DHT22;17497;51.476;7.770;2023-12-07T02:11:25;2.00;99.90
30764;DHT22;17497;51.476;7.770;2023-12-07T02:13:52;2.00;99.90
30764;DHT22;17497;51.476;7.770;2023-12-07T02:16:23;2.00;99.90
30764;DHT22;17497;51.476;7.770;2023-12-07T02:21:59;2.20;99.90
30764;DHT22;17497;51.476;7.770;2023-12-07T02:24:27;2.20;99.90
30764;DHT22;17497;51.476;7.770;2023-12-07T02:27:01;2.20;99.90
30764;DHT22;17497;51.476;7.770;2023-12-07T02:29:31;2.20;99.90
30764;DHT22;17497;51.476;7.770;2023-12-07T02:32:01;2.10;99.90
30764;DHT22;17497;51.476;7.770;2023-12-07T02:34:31;2.10;99.90
30764;DHT22;17497;51.476;7.770;2023-12-07T02:36:58;2.20;99.90
30764;DHT22;17497;51.476;7.770;2023-12-07T02:39:25;2.20;99.90
30764;DHT22;17497;51.476;7.770;2023-12-07T02:41:55;2.20;99.90
30764;DHT22;17497;51.476;7.770;2023-12-07T02:44:22;2.20;99.90
30764;DHT22;17497;51.476;7.770;2023-12-07T02:46:50;2.10;99.90
30764;DHT22;17497;51.476;7.770;2023-12-07T02:49:23;2.10;99.90
30764;DHT22;17497;51.476;7.770;2023-12-07T02:51:52;2.10;99.90
30764;DHT22;17497;51.476;7.770;2023-12-07T02:54:19;2.10;99.90
30764;DHT22;17497;51.476;7.770;2023-12-07T02:56:47;2.00;99.90
30764;DHT22;17497;51.476;7.770;2023-12-07T02:59:14;2.00;99.90
30764;DHT22;17497;51.476;7.770;2023-12-07T03:01:41;1.90;99.90
30764;DHT22;17497;51.476;7.770;2023-12-07T03:04:09;1.80;99.90
30764;DHT22;17497;51.476;7.770;2023-12-07T03:06:36;1.80;99.90
30764;DHT22;17497;51.476;7.770;2023-12-07T03:09:04;1.80;99.90
30764;DHT22;17497;51.476;7.770;2023-12-07T03:11:34;1.80;99.90
30764;DHT22;17497;51.476;7.770;2023-12-07T03:14:01;1.80;99.90
30764;DHT22;17497;51.476;7.770;2023-12-07T03:16:28;1.80;99.90
30764;DHT22;17497;51.476;7.770;2023-12-07T03:19:00;1.80;99.90
30764;DHT22;17497;51.476;7.770;2023-12-07T03:21:30;1.80;99.90
30764;DHT22;17497;51.476;7.770;2023-12-07T03:23:56;1.80;99.90
30764;DHT22;17497;51.476;7.770;2023-12-07T03:26:23;1.80;99.90
30764;DHT22;17497;51.476;7.770;2023-12-07T03:28:50;1.80;99.90
30764;DHT22;17497;51.476;7.770;2023-12-07T03:31:17;1.80;99.90
30764;DHT22;17497;51.476;7.770;2023-12-07T03:33:44;1.80;99.90
30764;DHT22;17497;51.476;7.770;2023-12-07T03:36:11;1.80;99.90
30764;DHT22;17497;51.476;7.770;2023-12-07T03:38:38;1.80;99.90
30764;DHT22;17497;51.476;7.770;2023-12-07T03:41:05;1.70;99.90
30764;DHT22;17497;51.476;7.770;2023-12-07T03:43:32;1.70;99.90
30764;DHT22;17497;51.476;7.770;2023-12-07T03:45:59;1.70;99.90
30764;DHT22;17497;51.476;7.770;2023-12-07T03:48:26;1.60;99.90
30764;DHT22;17497;51.476;7.770;2023-12-07T03:50:52;1.60;99.90
30764;DHT22;17497;51.476;7.770;2023-12-07T03:53:19;1.50;99.90
30764;DHT22;17497;51.476;7.770;2023-12-07T03:55:46;1.50;99.90
30764;DHT22;17497;51.476;7.770;2023-12-07T03:58:13;1.40;99.90
30764;DHT22;17497;51.476;7.770;2023-12-07T04:00:41;1.40;99.90
30764;DHT22;17497;51.476;7.770;2023-12-07T04:03:09;1.30;99.90
30764;DHT22;17497;51.476;7.770;2023-12-07T04:05:44;1.30;99.90
30764;DHT22;17497;51.476;7.770;2023-12-07T04:08:11;1.20;99.90
30764;DHT22;17497;51.476;7.770;2023-12-07T04:10:38;1.10;99.90
30764;DHT22;17497;51.476;7.770;2023-12-07T04:13:06;1.10;99.90
30764;DHT22;17497;51.476;7.770;2023-12-07T04:15:33;1.00;99.90
30764;DHT22;17497;51.476;7.770;2023-12-07T04:17:59;1.00;99.90
30764;DHT22;17497;51.476;7.770;2023-12-07T04:20:26;1.00;99.90
30764;DHT22;17497;51.476;7.770;2023-12-07T04:22:53;1.00;99.90
30764;DHT22;17497;51.476;7.770;2023-12-07T04:25:19;1.00;99.90
30764;DHT22;17497;51.476;7.770;2023-12-07T04:27:46;1.00;99.90
30764;DHT22;17497;51.476;7.770;2023-12-07T04:30:13;1.00;99.90
30764;DHT22;17497;51.476;7.770;2023-12-07T04:32:40;0.90;99.90
30764;DHT22;17497;51.476;7.770;2023-12-07T04:35:07;0.90;99.90
30764;DHT22;17497;51.476;7.770;2023-12-07T04:37:35;0.90;99.90
30764;DHT22;17497;51.476;7.770;2023-12-07T04:40:02;0.90;99.90
30764;DHT22;17497;51.476;7.770;2023-12-07T04:42:39;0.90;99.90
30764;DHT22;17497;51.476;7.770;2023-12-07T04:45:17;0.90;99.90
30764;DHT22;17497;51.476;7.770;2023-12-07T04:47:44;0.90;99.90
30764;DHT22;17497;51.476;7.770;2023-12-07T04:50:12;0.90;99.90
30764;DHT22;17497;51.476;7.770;2023-12-07T04:52:39;0.90;99.90
30764;DHT22;17497;51.476;7.770;2023-12-07T04:55:06;0.90;99.90
30764;DHT22;17497;51.476;7.770;2023-12-07T04:57:33;0.90;99.90
30764;DHT22;17497;51.476;7.770;2023-12-07T05:00:01;0.90;99.90
30764;DHT22;17497;51.476;7.770;2023-12-07T05:02:33;0.80;99.90
30764;DHT22;17497;51.476;7.770;2023-12-07T05:05:00;0.90;99.90
30764;DHT22;17497;51.476;7.770;2023-12-07T05:07:27;0.90;99.90
30764;DHT22;17497;51.476;7.770;2023-12-07T05:09:54;0.90;99.90
30764;DHT22;17497;51.476;7.770;2023-12-07T05:12:21;0.90;99.90
30764;DHT22;17497;51.476;7.770;2023-12-07T05:14:48;0.80;99.90
30764;DHT22;17497;51.476;7.770;2023-12-07T05:17:16;0.80;99.90
30764;DHT22;17497;51.476;7.770;2023-12-07T05:19:44;0.80;99.90
30764;DHT22;17497;51.476;7.770;2023-12-07T05:22:10;0.80;99.90
30764;DHT22;17497;51.476;7.770;2023-12-07T05:24:37;0.80;99.90
30764;DHT22;17497;51.476;7.770;2023-12-07T05:27:04;0.80;99.90
30764;DHT22;17497;51.476;7.770;2023-12-07T05:29:31;0.70;99.90
30764;DHT22;17497;51.476;7.770;2023-12-07T05:31:58;0.70;99.90
30764;DHT22;17497;51.476;7.770;2023-12-07T05:34:25;0.70;99.90
30764;DHT22;17497;51.476;7.770;2023-12-07T05:36:52;0.70;99.90
30764;DHT22;17497;51.476;7.770;2023-12-07T05:39:19;0.70;99.90
30764;DHT22;17497;51.476;7.770;2023-12-07T05:41:46;0.70;99.90
30764;DHT22;17497;51.476;7.770;2023-12-07T05:44:13;0.70;99.90
30764;DHT22;17497;51.476;7.770;2023-12-07T05:46:40;0.70;99.90
30764;DHT22;17497;51.476;7.770;2023-12-07T05:49:13;0.70;99.90
30764;DHT22;17497;51.476;7.770;2023-12-07T05:55:20;0.50;99.90
30764;DHT22;17497;51.476;7.770;2023-12-07T05:57:46;0.30;99.90
30764;DHT22;17497;51.476;7.770;2023-12-07T06:00:14;0.20;99.90
30764;DHT22;17497;51.476;7.770;2023-12-07T06:02:42;0.20;99.90
30764;DHT22;17497;51.476;7.770;2023-12-07T06:05:09;0.20;99.90
30764;DHT22;17497;51.476;7.770;2023-12-07T06:07:37;0.20;99.90
30764;DHT22;17497;51.476;7.770;2023-12-07T06:10:05;0.20;99.90
30764;DHT22;17497;51.476;7.770;2023-12-07T06:12:32;0.20;99.90
30764;DHT22;17497;51.476;7.770;2023-12-07T06:15:00;0.20;99.90
30764;DHT22;17497;51.476;7.770;2023-12-07T06:17:27;0.20;99.90
30764;DHT22;17497;51.476;7.770;2023-12-07T06:19:54;0.20;99.90
30764;DHT22;17497;51.476;7.770;2023-12-07T06:22:21;0.20;99.90
30764;DHT22;17497;51.476;7.770;2023-12-07T06:24:49;0.20;99.90
30764;DHT22;17497;51.476;7.770;2023-12-07T06:27:16;0.20;99.90
30764;DHT22;17497;51.476;7.770;2023-12-07T06:29:44;0.20;99.90
30764;DHT22;17497;51.476;7.770;2023-12-07T06:32:14;0.20;99.90
30764;DHT22;17497;51.476;7.770;2023-12-07T06:34:46;0.20;99.90
30764;DHT22;17497;51.476;7.770;2023-12-07T06:37:17;0.20;99.90
30764;DHT22;17497;51.476;7.770;2023-12-07T06:39:51;0.20;99.90
30764;DHT22;17497;51.476;7.770;2023-12-07T06:42:21;0.10;99.90
30764;DHT22;17497;51.476;7.770;2023-12-07T06:44:48;0.10;99.90
30764;DHT22;17497;51.476;7.770;2023-12-07T06:47:17;0.20;99.90
30764;DHT22;17497;51.476;7.770;2023-12-07T06:49:44;0.20;99.90
30764;DHT22;17497;51.476;7.770;2023-12-07T06:52:17;0.20;99.90
30764;DHT22;17497;51.476;7.770;2023-12-07T06:54:44;0.20;99.90
30764;DHT22;17497;51.476;7.770;2023-12-07T06:57:11;0.10;99.90
30764;DHT22;17497;51.476;7.770;2023-12-07T06:59:41;0.10;99.90
30764;DHT22;17497;51.476;7.770;2023-12-07T07:02:08;0.10;99.90
30764;DHT22;17497;51.476;7.770;2023-12-07T07:04:34;0.10;99.90
30764;DHT22;17497;51.476;7.770;2023-12-07T07:07:01;0.10;99.90
30764;DHT22;17497;51.476;7.770;2023-12-07T07:09:28;0.10;99.90
30764;DHT22;17497;51.476;7.770;2023-12-07T07:11:55;0.00;99.90
30764;DHT22;17497;51.476;7.770;2023-12-07T07:14:24;0.00;99.90
30764;DHT22;17497;51.476;7.770;2023-12-07T07:16:58;0.00;99.90
30764;DHT22;17497;51.476;7.770;2023-12-07T07:19:25;0.00;99.90
30764;DHT22;17497;51.476;7.770;2023-12-07T07:21:51;-0.10;99.90
30764;DHT22;17497;51.476;7.770;2023-12-07T07:24:20;-0.10;99.90
30764;DHT22;17497;51.476;7.770;2023-12-07T07:26:47;-0.10;99.90
30764;DHT22;17497;51.476;7.770;2023-12-07T07:29:14;-0.10;99.90
30764;DHT22;17497;51.476;7.770;2023-12-07T07:31:43;-0.10;99.90
30764;DHT22;17497;51.476;7.770;2023-12-07T07:34:10;-0.10;99.90
30764;DHT22;17497;51.476;7.770;2023-12-07T07:36:37;-0.20;99.90
30764;DHT22;17497;51.476;7.770;2023-12-07T07:39:04;-0.10;99.90
30764;DHT22;17497;51.476;7.770;2023-12-07T07:41:37;-0.20;99.90
30764;DHT22;17497;51.476;7.770;2023-12-07T07:44:04;-0.10;99.90
30764;DHT22;17497;51.476;7.770;2023-12-07T07:46:30;-0.10;99.90
30764;DHT22;17497;51.476;7.770;2023-12-07T07:48:57;-0.10;99.90
30764;DHT22;17497;51.476;7.770;2023-12-07T07:51:27;-0.10;99.90
30764;DHT22;17497;51.476;7.770;2023-12-07T07:53:53;0.00;99.90
30764;DHT22;17497;51.476;7.770;2023-12-07T07:56:26;0.00;99.90
30764;DHT22;17497;51.476;7.770;2023-12-07T07:58:55;0.00;99.90
30764;DHT22;17497;51.476;7.770;2023-12-07T08:01:22;0.10;99.90
30764;DHT22;17497;51.476;7.770;2023-12-07T08:03:48;0.10;99.90
30764;DHT22;17497;51.476;7.770;2023-12-07T08:06:15;0.20;99.90
30764;DHT22;17497;51.476;7.770;2023-12-07T08:08:42;0.30;99.90
30764;DHT22;17497;51.476;7.770;2023-12-07T08:11:08;0.30;99.90
30764;DHT22;17497;51.476;7.770;2023-12-07T08:13:35;0.30;99.90
30764;DHT22;17497;51.476;7.770;2023-12-07T08:16:02;0.30;99.90
30764;DHT22;17497;51.476;7.770;2023-12-07T08:18:29;0.40;99.90
30764;DHT22;17497;51.476;7.770;2023-12-07T08:20:56;0.40;99.90
30764;DHT22;17497;51.476;7.770;2023-12-07T08:23:23;0.50;99.90
30764;DHT22;17497;51.476;7.770;2023-12-07T08:25:50;0.50;99.90
30764;DHT22;17497;51.476;7.770;2023-12-07T08:28:17;0.50;99.90
30764;DHT22;17497;51.476;7.770;2023-12-07T08:30:45;0.50;99.90
30764;DHT22;17497;51.476;7.770;2023-12-07T08:33:12;0.60;99.90
30764;DHT22;17497;51.476;7.770;2023-12-07T08:35:39;0.60;99.90
30764;DHT22;17497;51.476;7.770;2023-12-07T08:38:05;0.60;99.90
30764;DHT22;17497;51.476;7.770;2023-12-07T08:40:32;0.60;99.90
30764;DHT22;17497;51.476;7.770;2023-12-07T08:42:59;0.60;99.90
30764;DHT22;17497;51.476;7.770;2023-12-07T08:45:26;0.70;99.90
30764;DHT22;17497;51.476;7.770;2023-12-07T08:47:52;0.70;99.90
30764;DHT22;17497;51.476;7.770;2023-12-07T08:50:19;0.80;99.90
30764;DHT22;17497;51.476;7.770;2023-12-07T08:52:49;0.90;99.90
30764;DHT22;17497;51.476;7.770;2023-12-07T08:55:25;0.90;99.90
30764;DHT22;17497;51.476;7.770;2023-12-07T08:57:52;1.00;99.90
30764;DHT22;17497;51.476;7.770;2023-12-07T09:00:19;1.10;99.90
30764;DHT22;17497;51.476;7.770;2023-12-07T09:02:50;1.20;99.90
30764;DHT22;17497;51.476;7.770;2023-12-07T09:05:18;1.30;99.90
30764;DHT22;17497;51.476;7.770;2023-12-07T09:07:44;1.40;99.90
30764;DHT22;17497;51.476;7.770;2023-12-07T09:10:11;1.50;99.90
30764;DHT22;17497;51.476;7.770;2023-12-07T09:12:38;1.60;99.90
30764;DHT22;17497;51.476;7.770;2023-12-07T09:15:06;1.80;99.90
30764;DHT22;17497;51.476;7.770;2023-12-07T09:17:34;1.90;99.90
30764;DHT22;17497;51.476;7.770;2023-12-07T09:20:01;2.00;99.90
30764;DHT22;17497;51.476;7.770;2023-12-07T09:22:28;2.10;99.90
30764;DHT22;17497;51.476;7.770;2023-12-07T09:25:02;2.20;99.90
30764;DHT22;17497;51.476;7.770;2023-12-07T09:27:31;2.40;99.90
30764;DHT22;17497;51.476;7.770;2023-12-07T09:29:59;2.50;99.90
30764;DHT22;17497;51.476;7.770;2023-12-07T09:32:26;2.70;99.90
30764;DHT22;17497;51.476;7.770;2023-12-07T09:34:59;2.80;99.90
30764;DHT22;17497;51.476;7.770;2023-12-07T09:37:25;3.00;99.90
30764;DHT22;17497;51.476;7.770;2023-12-07T09:39:52;3.10;99.90
30764;DHT22;17497;51.476;7.770;2023-12-07T09:42:19;3.30;99.90
30764;DHT22;17497;51.476;7.770;2023-12-07T09:44:48;3.40;99.90
30764;DHT22;17497;51.476;7.770;2023-12-07T09:47:15;3.60;99.90
30764;DHT22;17497;51.476;7.770;2023-12-07T09:49:49;3.70;99.90
30764;DHT22;17497;51.476;7.770;2023-12-07T09:52:19;3.80;99.90
30764;DHT22;17497;51.476;7.770;2023-12-07T09:54:46;3.90;99.90
30764;DHT22;17497;51.476;7.770;2023-12-07T09:57:13;4.00;99.90
30764;DHT22;17497;51.476;7.770;2023-12-07T09:59:40;4.20;99.90
30764;DHT22;17497;51.476;7.770;2023-12-07T10:02:07;4.40;99.90
30764;DHT22;17497;51.476;7.770;2023-12-07T10:04:36;4.40;99.90
30764;DHT22;17497;51.476;7.770;2023-12-07T10:07:03;4.40;99.90
30764;DHT22;17497;51.476;7.770;2023-12-07T10:09:30;4.40;99.90
30764;DHT22;17497;51.476;7.770;2023-12-07T10:12:05;4.50;99.90
30764;DHT22;17497;51.476;7.770;2023-12-07T10:14:32;4.50;99.90
30764;DHT22;17497;51.476;7.770;2023-12-07T10:16:59;4.50;99.90
30764;DHT22;17497;51.476;7.770;2023-12-07T10:19:25;4.60;99.90
30764;DHT22;17497;51.476;7.770;2023-12-07T10:21:57;4.60;99.90
30764;DHT22;17497;51.476;7.770;2023-12-07T10:24:24;4.90;99.90
30764;DHT22;17497;51.476;7.770;2023-12-07T10:26:51;5.10;99.90
30764;DHT22;17497;51.476;7.770;2023-12-07T10:29:27;5.50;99.90
30764;DHT22;17497;51.476;7.770;2023-12-07T10:32:01;5.70;99.90
30764;DHT22;17497;51.476;7.770;2023-12-07T10:34:29;5.60;99.90
30764;DHT22;17497;51.476;7.770;2023-12-07T10:36:56;5.90;99.90
30764;DHT22;17497;51.476;7.770;2023-12-07T10:39:24;6.20;99.90
30764;DHT22;17497;51.476;7.770;2023-12-07T10:42:01;6.30;99.90
30764;DHT22;17497;51.476;7.770;2023-12-07T10:44:29;6.50;99.90
30764;DHT22;17497;51.476;7.770;2023-12-07T10:46:56;6.70;99.90
30764;DHT22;17497;51.476;7.770;2023-12-07T10:49:24;6.90;77.20
30764;DHT22;17497;51.476;7.770;2023-12-07T10:52:00;6.90;99.90
30764;DHT22;17497;51.476;7.770;2023-12-07T10:54:32;6.90;99.90
30764;DHT22;17497;51.476;7.770;2023-12-07T10:57:01;6.80;86.80
30764;DHT22;17497;51.476;7.770;2023-12-07T10:59:31;6.60;99.90
30764;DHT22;17497;51.476;7.770;2023-12-07T11:02:00;6.50;99.90
30764;DHT22;17497;51.476;7.770;2023-12-07T11:04:28;6.60;99.90
30764;DHT22;17497;51.476;7.770;2023-12-07T11:06:56;6.40;99.90
30764;DHT22;17497;51.476;7.770;2023-12-07T11:09:27;6.10;99.90
30764;DHT22;17497;51.476;7.770;2023-12-07T11:11:58;6.00;99.90
30764;DHT22;17497;51.476;7.770;2023-12-07T11:14:25;5.90;96.70
30764;DHT22;17497;51.476;7.770;2023-12-07T11:16:52;5.80;99.90
30764;DHT22;17497;51.476;7.770;2023-12-07T11:21:59;6.00;85.80
30764;DHT22;17497;51.476;7.770;2023-12-07T11:24:26;5.80;75.90
30764;DHT22;17497;51.476;7.770;2023-12-07T11:26:53;5.70;99.90
30764;DHT22;17497;51.476;7.770;2023-12-07T11:29:20;5.60;99.90
30764;DHT22;17497;51.476;7.770;2023-12-07T11:31:49;5.80;99.90
30764;DHT22;17497;51.476;7.770;2023-12-07T11:34:35;6.00;78.90
30764;DHT22;17497;51.476;7.770;2023-12-07T11:37:02;6.10;99.90
30764;DHT22;17497;51.476;7.770;2023-12-07T11:39:29;6.10;99.90
30764;DHT22;17497;51.476;7.770;2023-12-07T11:42:09;6.00;99.90
30764;DHT22;17497;51.476;7.770;2023-12-07T11:44:39;6.00;99.20
30764;DHT22;17497;51.476;7.770;2023-12-07T11:47:07;6.00;99.90
30764;DHT22;17497;51.476;7.770;2023-12-07T11:49:35;5.90;99.90
30764;DHT22;17497;51.476;7.770;2023-12-07T11:52:11;5.90;98.00
30764;DHT22;17497;51.476;7.770;2023-12-07T11:54:38;6.10;94.50
30764;DHT22;17497;51.476;7.770;2023-12-07T11:57:05;6.20;99.90
30764;DHT22;17497;51.476;7.770;2023-12-07T11:59:32;6.20;99.90
30764;DHT22;17497;51.476;7.770;2023-12-07T12:02:00;6.30;77.70
30764;DHT22;17497;51.476;7.770;2023-12-07T12:04:29;6.40;88.80
30764;DHT22;17497;51.476;7.770;2023-12-07T12:06:56;6.50;75.40
30764;DHT22;17497;51.476;7.770;2023-12-07T12:09:25;6.60;88.60
30764;DHT22;17497;51.476;7.770;2023-12-07T12:11:57;6.80;90.00
30764;DHT22;17497;51.476;7.770;2023-12-07T12:14:27;7.00;51.00
30764;DHT22;17497;51.476;7.770;2023-12-07T12:16:55;7.20;42.80
30764;DHT22;17497;51.476;7.770;2023-12-07T12:19:27;7.20;41.20
30764;DHT22;17497;51.476;7.770;2023-12-07T12:22:00;6.90;27.80
30764;DHT22;17497;51.476;7.770;2023-12-07T12:24:30;6.80;71.50
30764;DHT22;17497;51.476;7.770;2023-12-07T12:26:57;6.80;62.00
30764;DHT22;17497;51.476;7.770;2023-12-07T12:29:24;6.80;46.00
30764;DHT22;17497;51.476;7.770;2023-12-07T12:31:57;6.60;77.70
30764;DHT22;17497;51.476;7.770;2023-12-07T12:34:23;6.60;91.90
30764;DHT22;17497;51.476;7.770;2023-12-07T12:36:50;6.70;91.40
30764;DHT22;17497;51.476;7.770;2023-12-07T12:39:19;6.90;63.90
30764;DHT22;17497;51.476;7.770;2023-12-07T12:41:54;6.80;32.90
30764;DHT22;17497;51.476;7.770;2023-12-07T12:47:50;6.40;73.40
30764;DHT22;17497;51.476;7.770;2023-12-07T12:50:33;6.20;54.80
30764;DHT22;17497;51.476;7.770;2023-12-07T12:53:02;6.10;62.10
30764;DHT22;17497;51.476;7.770;2023-12-07T12:55:35;6.00;69.00
30764;DHT22;17497;51.476;7.770;2023-12-07T12:58:02;5.90;98.70
30764;DHT22;17497;51.476;7.770;2023-12-07T13:00:31;5.90;90.60
30764;DHT22;17497;51.476;7.770;2023-12-07T13:03:01;6.10;88.10
30764;DHT22;17497;51.476;7.770;2023-12-07T13:05:28;6.30;62.60
30764;DHT22;17497;51.476;7.770;2023-12-07T13:07:55;6.30;49.70
30764;DHT22;17497;51.476;7.770;2023-12-07T13:10:33;6.50;72.20
30764;DHT22;17497;51.476;7.770;2023-12-07T13:13:00;6.60;62.80
30764;DHT22;17497;51.476;7.770;2023-12-07T13:15:28;6.90;54.20
30764;DHT22;17497;51.476;7.770;2023-12-07T13:17:56;7.20;22.90
30764;DHT22;17497;51.476;7.770;2023-12-07T13:20:22;7.20;29.10
30764;DHT22;17497;51.476;7.770;2023-12-07T13:22:50;7.10;23.00
30764;DHT22;17497;51.476;7.770;2023-12-07T13:25:17;6.80;48.40
30764;DHT22;17497;51.476;7.770;2023-12-07T13:27:43;6.40;58.10
30764;DHT22;17497;51.476;7.770;2023-12-07T13:30:10;6.30;65.70
30764;DHT22;17497;51.476;7.770;2023-12-07T13:32:37;6.00;75.40
30764;DHT22;17497;51.476;7.770;2023-12-07T13:35:05;5.80;78.80
30764;DHT22;17497;51.476;7.770;2023-12-07T13:37:32;5.80;97.90
30764;DHT22;17497;51.476;7.770;2023-12-07T13:39:59;5.60;99.90
30764;DHT22;17497;51.476;7.770;2023-12-07T13:42:26;5.70;99.90
30764;DHT22;17497;51.476;7.770;2023-12-07T13:44:54;5.70;99.90
30764;DHT22;17497;51.476;7.770;2023-12-07T13:47:26;5.80;99.90
30764;DHT22;17497;51.476;7.770;2023-12-07T13:49:55;6.00;88.60
30764;DHT22;17497;51.476;7.770;2023-12-07T13:52:23;5.90;87.20
30764;DHT22;17497;51.476;7.770;2023-12-07T13:54:50;5.90;72.30
30764;DHT22;17497;51.476;7.770;2023-12-07T13:57:20;5.80;65.00
30764;DHT22;17497;51.476;7.770;2023-12-07T13:59:48;5.70;92.00
30764;DHT22;17497;51.476;7.770;2023-12-07T14:02:14;5.50;92.80
30764;DHT22;17497;51.476;7.770;2023-12-07T14:04:42;5.50;93.30
30764;DHT22;17497;51.476;7.770;2023-12-07T14:07:10;5.40;91.60
30764;DHT22;17497;51.476;7.770;2023-12-07T14:09:37;5.30;93.40
30764;DHT22;17497;51.476;7.770;2023-12-07T14:12:22;5.20;99.90
30764;DHT22;17497;51.476;7.770;2023-12-07T14:14:50;5.20;99.90
30764;DHT22;17497;51.476;7.770;2023-12-07T14:17:17;5.30;95.70
30764;DHT22;17497;51.476;7.770;2023-12-07T14:19:48;5.10;99.70
30764;DHT22;17497;51.476;7.770;2023-12-07T14:22:17;5.10;95.10
30764;DHT22;17497;51.476;7.770;2023-12-07T14:24:50;5.00;99.90
30764;DHT22;17497;51.476;7.770;2023-12-07T14:27:38;5.00;99.00
30764;DHT22;17497;51.476;7.770;2023-12-07T14:30:08;4.90;99.90
30764;DHT22;17497;51.476;7.770;2023-12-07T14:32:40;4.70;99.90
30764;DHT22;17497;51.476;7.770;2023-12-07T14:35:10;4.60;99.30
30764;DHT22;17497;51.476;7.770;2023-12-07T14:37:39;4.60;99.90
30764;DHT22;17497;51.476;7.770;2023-12-07T14:40:07;4.50;99.90
30764;DHT22;17497;51.476;7.770;2023-12-07T14:42:35;4.30;99.90
30764;DHT22;17497;51.476;7.770;2023-12-07T14:45:03;4.30;99.90
30764;DHT22;17497;51.476;7.770;2023-12-07T14:47:31;4.20;99.90
30764;DHT22;17497;51.476;7.770;2023-12-07T14:49:58;4.10;99.90
30764;DHT22;17497;51.476;7.770;2023-12-07T14:52:26;4.00;99.90
30764;DHT22;17497;51.476;7.770;2023-12-07T14:54:53;3.90;99.90
30764;DHT22;17497;51.476;7.770;2023-12-07T14:57:23;3.80;99.90
30764;DHT22;17497;51.476;7.770;2023-12-07T14:59:49;3.60;99.90
30764;DHT22;17497;51.476;7.770;2023-12-07T15:02:16;3.60;99.90
30764;DHT22;17497;51.476;7.770;2023-12-07T15:04:43;3.50;99.90
30764;DHT22;17497;51.476;7.770;2023-12-07T15:07:10;3.50;99.90
30764;DHT22;17497;51.476;7.770;2023-12-07T15:09:37;3.40;99.90
30764;DHT22;17497;51.476;7.770;2023-12-07T15:12:04;3.40;99.90
30764;DHT22;17497;51.476;7.770;2023-12-07T15:14:31;3.30;99.90
30764;DHT22;17497;51.476;7.770;2023-12-07T15:17:03;3.30;99.90
30764;DHT22;17497;51.476;7.770;2023-12-07T15:19:31;3.20;99.90
30764;DHT22;17497;51.476;7.770;2023-12-07T15:21:58;3.10;99.90
30764;DHT22;17497;51.476;7.770;2023-12-07T15:24:25;3.10;99.90
30764;DHT22;17497;51.476;7.770;2023-12-07T15:26:59;3.00;99.90
30764;DHT22;17497;51.476;7.770;2023-12-07T15:29:27;3.10;99.90
30764;DHT22;17497;51.476;7.770;2023-12-07T15:31:54;3.00;99.90
30764;DHT22;17497;51.476;7.770;2023-12-07T15:34:20;2.90;99.90
30764;DHT22;17497;51.476;7.770;2023-12-07T15:36:54;2.90;99.90
30764;DHT22;17497;51.476;7.770;2023-12-07T15:39:21;2.90;99.90
30764;DHT22;17497;51.476;7.770;2023-12-07T15:41:47;2.80;99.90
30764;DHT22;17497;51.476;7.770;2023-12-07T15:44:14;2.80;99.90
30764;DHT22;17497;51.476;7.770;2023-12-07T15:46:45;2.80;99.90
30764;DHT22;17497;51.476;7.770;2023-12-07T15:49:12;2.70;99.90
30764;DHT22;17497;51.476;7.770;2023-12-07T15:51:39;2.70;99.90
30764;DHT22;17497;51.476;7.770;2023-12-07T15:54:05;2.60;99.90
30764;DHT22;17497;51.476;7.770;2023-12-07T15:56:32;2.70;99.90
30764;DHT22;17497;51.476;7.770;2023-12-07T15:58:58;2.60;99.90
30764;DHT22;17497;51.476;7.770;2023-12-07T16:01:25;2.50;99.90
30764;DHT22;17497;51.476;7.770;2023-12-07T16:03:52;2.50;99.90